createdAt,value
2017-11-01T00:02:21.932Z,6.80
2017-11-01T00:04:49.430Z,6.90
2017-11-01T00:07:17.953Z,6.80
2017-11-01T00:09:45.427Z,6.80
2017-11-01T00:12:12.942Z,6.90
2017-11-01T00:14:40.522Z,6.90
2017-11-01T00:17:08.772Z,6.90
2017-11-01T00:19:36.300Z,6.90
2017-11-01T00:22:03.937Z,6.90
2017-11-01T00:24:31.481Z,6.90
2017-11-01T00:26:58.977Z,6.90
2017-11-01T00:29:26.623Z,6.90
2017-11-01T00:31:54.117Z,7.00
2017-11-01T00:34:21.651Z,7.00
2017-11-01T00:36:49.934Z,7.00
2017-11-01T00:39:17.528Z,6.90
2017-11-01T00:41:45.813Z,7.00
2017-11-01T00:44:13.327Z,7.00
2017-11-01T00:46:41.682Z,6.90
2017-11-01T00:49:09.179Z,6.90
2017-11-01T00:51:36.703Z,6.90
2017-11-01T00:54:04.215Z,6.90
2017-11-01T00:56:31.717Z,7.00
2017-11-01T00:58:59.200Z,6.90
2017-11-01T01:01:27.431Z,6.90
2017-11-01T01:03:55.690Z,6.90
2017-11-01T01:06:23.180Z,6.90
2017-11-01T01:08:51.412Z,7.00
2017-11-01T01:11:18.902Z,7.00
2017-11-01T01:13:46.459Z,7.00
2017-11-01T01:16:14.734Z,7.00
2017-11-01T01:18:42.211Z,6.90
2017-11-01T01:21:09.667Z,7.00
2017-11-01T01:23:37.198Z,6.90
2017-11-01T01:26:04.682Z,6.90
2017-11-01T01:28:32.152Z,6.80
2017-11-01T01:30:59.611Z,6.80
2017-11-01T01:33:27.101Z,6.80
2017-11-01T01:35:54.582Z,6.80
2017-11-01T01:38:22.063Z,6.80
2017-11-01T01:40:49.547Z,6.80
2017-11-01T01:43:17.021Z,6.90
2017-11-01T01:45:44.507Z,6.80
2017-11-01T01:48:11.973Z,6.80
2017-11-01T01:50:39.447Z,6.70
2017-11-01T01:53:07.808Z,6.60
2017-11-01T01:55:35.372Z,6.60
2017-11-01T01:58:02.850Z,6.40
2017-11-01T02:00:31.091Z,6.20
2017-11-01T02:02:58.565Z,6.20
2017-11-01T02:05:26.062Z,6.30
2017-11-01T02:07:54.321Z,6.40
2017-11-01T02:10:21.791Z,6.40
2017-11-01T02:12:49.273Z,6.50
2017-11-01T02:15:16.744Z,6.60
2017-11-01T02:17:45.021Z,6.70
2017-11-01T02:20:12.487Z,6.70
2017-11-01T02:22:39.962Z,6.80
2017-11-01T02:25:07.453Z,6.80
2017-11-01T02:27:35.073Z,6.80
2017-11-01T02:30:03.325Z,6.80
2017-11-01T02:32:31.572Z,6.80
2017-11-01T02:34:59.045Z,6.80
2017-11-01T02:37:26.506Z,6.80
2017-11-01T02:39:53.985Z,6.80
2017-11-01T02:42:21.478Z,6.80
2017-11-01T02:44:48.926Z,6.80
2017-11-01T02:47:17.220Z,6.80
2017-11-01T02:49:45.461Z,6.80
2017-11-01T02:52:12.928Z,6.80
2017-11-01T02:54:40.434Z,6.90
2017-11-01T02:57:07.934Z,6.90
2017-11-01T02:59:37.966Z,6.90
2017-11-01T03:02:05.428Z,6.90
2017-11-01T03:04:32.922Z,7.00
2017-11-01T03:07:01.147Z,7.00
2017-11-01T03:09:28.645Z,7.00
2017-11-01T03:11:56.114Z,6.90
2017-11-01T03:14:23.592Z,6.90
2017-11-01T03:16:51.092Z,7.00
2017-11-01T03:19:18.572Z,6.90
2017-11-01T03:21:46.160Z,6.90
2017-11-01T03:24:13.623Z,7.00
2017-11-01T03:26:41.141Z,7.00
2017-11-01T03:29:09.381Z,7.00
2017-11-01T03:31:36.874Z,7.00
2017-11-01T03:34:04.349Z,6.80
2017-11-01T03:36:31.815Z,7.10
2017-11-01T03:38:59.303Z,7.10
2017-11-01T03:41:26.776Z,7.20
2017-11-01T03:43:54.267Z,7.20
2017-11-01T03:46:21.734Z,7.20
2017-11-01T03:48:49.990Z,7.30
2017-11-01T03:51:17.493Z,7.30
2017-11-01T03:53:44.982Z,7.40
2017-11-01T03:56:12.494Z,7.40
2017-11-01T03:58:40.081Z,7.40
2017-11-01T04:01:08.335Z,7.50
2017-11-01T04:03:35.815Z,7.40
2017-11-01T04:06:04.084Z,7.40
2017-11-01T04:08:31.542Z,7.40
2017-11-01T04:10:59.785Z,7.50
2017-11-01T04:13:27.255Z,7.40
2017-11-01T04:15:54.721Z,7.50
2017-11-01T04:18:24.999Z,7.50
2017-11-01T04:20:53.246Z,7.50
2017-11-01T04:23:21.499Z,7.70
2017-11-01T04:25:49.726Z,7.60
2017-11-01T04:28:17.348Z,7.60
2017-11-01T04:30:45.618Z,7.60
2017-11-01T04:33:13.084Z,7.60
2017-11-01T04:35:41.482Z,7.70
2017-11-01T04:38:08.941Z,7.60
2017-11-01T04:40:36.428Z,7.60
2017-11-01T04:43:03.902Z,7.50
2017-11-01T04:45:31.350Z,7.60
2017-11-01T04:48:00.724Z,7.60
2017-11-01T04:50:29.097Z,7.60
2017-11-01T04:52:57.339Z,7.40
2017-11-01T04:55:25.570Z,7.60
2017-11-01T04:57:53.055Z,7.60
2017-11-01T05:00:22.389Z,7.60
2017-11-01T05:02:49.886Z,7.60
2017-11-01T05:05:17.380Z,7.60
2017-11-01T05:07:44.881Z,7.60
2017-11-01T05:10:15.953Z,7.60
2017-11-01T05:12:44.183Z,7.60
2017-11-01T05:15:13.447Z,7.60
2017-11-01T05:17:40.927Z,7.70
2017-11-01T05:20:08.411Z,7.70
2017-11-01T05:22:35.872Z,7.70
2017-11-01T05:25:06.688Z,7.70
2017-11-01T05:27:34.920Z,7.70
2017-11-01T05:30:03.169Z,7.80
2017-11-01T05:32:30.643Z,7.70
2017-11-01T05:34:58.108Z,7.80
2017-11-01T05:37:26.363Z,7.80
2017-11-01T05:39:53.836Z,7.90
2017-11-01T05:42:21.405Z,7.80
2017-11-01T05:44:48.873Z,8.00
2017-11-01T05:47:16.407Z,8.00
2017-11-01T05:49:44.659Z,8.00
2017-11-01T05:52:12.134Z,8.00
2017-11-01T05:54:40.364Z,8.00
2017-11-01T05:57:07.824Z,8.00
2017-11-01T05:59:35.381Z,8.10
2017-11-01T06:02:03.659Z,8.10
2017-11-01T06:04:31.929Z,8.10
2017-11-01T06:06:59.421Z,8.10
2017-11-01T06:09:26.882Z,8.10
2017-11-01T06:11:54.422Z,8.10
2017-11-01T06:14:21.915Z,8.20
2017-11-01T06:16:50.198Z,8.20
2017-11-01T06:19:17.778Z,8.20
2017-11-01T06:21:45.254Z,8.20
2017-11-01T06:24:12.724Z,8.10
2017-11-01T06:26:40.302Z,8.10
2017-11-01T06:29:07.776Z,8.20
2017-11-01T06:31:35.303Z,8.30
2017-11-01T06:34:02.794Z,8.30
2017-11-01T06:36:31.799Z,8.30
2017-11-01T06:39:00.027Z,8.40
2017-11-01T06:41:27.509Z,8.40
2017-11-01T06:43:56.490Z,8.40
2017-11-01T06:46:23.963Z,8.40
2017-11-01T06:48:52.219Z,8.40
2017-11-01T06:51:19.708Z,8.50
2017-11-01T06:53:48.088Z,8.50
2017-11-01T06:56:15.545Z,8.40
2017-11-01T06:58:43.772Z,8.50
2017-11-01T07:01:12.166Z,8.50
2017-11-01T07:03:39.622Z,8.50
2017-11-01T07:06:07.873Z,8.50
2017-11-01T07:08:35.453Z,8.60
2017-11-01T07:11:02.928Z,8.60
2017-11-01T07:13:30.405Z,8.70
2017-11-01T07:15:57.887Z,8.80
2017-11-01T07:18:25.370Z,8.80
2017-11-01T07:20:53.595Z,8.80
2017-11-01T07:23:21.054Z,8.80
2017-11-01T07:25:48.560Z,8.80
2017-11-01T07:28:16.585Z,8.80
2017-11-01T07:30:44.193Z,8.80
2017-11-01T07:33:12.442Z,8.90
2017-11-01T07:35:40.115Z,8.80
2017-11-01T07:38:07.633Z,8.80
2017-11-01T07:40:35.084Z,8.90
2017-11-01T07:43:03.371Z,9.00
2017-11-01T07:45:31.694Z,9.10
2017-11-01T07:47:59.157Z,9.00
2017-11-01T07:50:27.384Z,9.10
2017-11-01T07:52:54.972Z,9.00
2017-11-01T07:55:22.438Z,9.10
2017-11-01T07:57:50.788Z,9.10
2017-11-01T08:00:18.731Z,9.10
2017-11-01T08:02:46.955Z,9.30
2017-11-01T08:05:14.416Z,9.30
2017-11-01T08:07:42.881Z,9.60
2017-11-01T08:10:10.349Z,9.50
2017-11-01T08:12:37.851Z,9.60
2017-11-01T08:15:05.328Z,9.60
2017-11-01T08:17:32.818Z,9.70
2017-11-01T08:20:00.360Z,9.60
2017-11-01T08:22:27.826Z,9.70
2017-11-01T08:24:56.119Z,9.80
2017-11-01T08:27:23.586Z,9.80
2017-11-01T08:29:51.076Z,9.90
2017-11-01T08:32:18.547Z,10.10
2017-11-01T08:34:46.038Z,10.10
2017-11-01T08:37:13.500Z,10.10
2017-11-01T08:39:40.991Z,10.20
2017-11-01T08:42:08.539Z,10.20
2017-11-01T08:44:36.785Z,10.20
2017-11-01T08:47:05.055Z,10.20
2017-11-01T08:49:33.288Z,10.20
2017-11-01T08:52:00.780Z,10.20
2017-11-01T08:54:29.058Z,10.30
2017-11-01T08:56:57.297Z,10.30
2017-11-01T08:59:24.779Z,10.30
2017-11-01T09:01:52.294Z,10.20
2017-11-01T09:04:19.813Z,10.40
2017-11-01T09:06:48.059Z,10.50
2017-11-01T09:09:15.693Z,10.50
2017-11-01T09:11:43.148Z,10.20
2017-11-01T09:14:10.631Z,10.50
2017-11-01T09:16:38.095Z,10.60
2017-11-01T09:19:05.682Z,10.70
2017-11-01T09:21:33.244Z,10.90
2017-11-01T09:24:00.757Z,11.00
2017-11-01T09:26:28.254Z,11.10
2017-11-01T09:28:55.721Z,11.20
2017-11-01T09:31:23.225Z,11.40
2017-11-01T09:33:50.695Z,11.50
2017-11-01T09:36:18.242Z,11.50
2017-11-01T09:38:45.736Z,11.90
2017-11-01T09:41:13.984Z,12.00
2017-11-01T09:43:41.456Z,11.90
2017-11-01T09:46:08.934Z,12.00
2017-11-01T09:48:36.439Z,12.00
2017-11-01T09:51:04.757Z,12.20
2017-11-01T09:53:32.265Z,12.20
2017-11-01T09:55:59.746Z,12.10
2017-11-01T09:58:27.233Z,12.20
2017-11-01T10:00:54.715Z,12.30
2017-11-01T10:03:22.231Z,12.20
2017-11-01T10:05:49.734Z,12.30
2017-11-01T10:08:17.251Z,12.40
2017-11-01T10:10:44.731Z,12.50
2017-11-01T10:13:12.255Z,12.50
2017-11-01T10:15:39.984Z,12.60
2017-11-01T10:18:07.473Z,12.50
2017-11-01T10:20:35.772Z,12.50
2017-11-01T10:23:04.067Z,12.50
2017-11-01T10:25:31.550Z,12.50
2017-11-01T10:28:20.056Z,12.50
2017-11-01T10:30:48.292Z,12.60
2017-11-01T10:33:15.895Z,12.60
2017-11-01T10:35:43.385Z,12.50
2017-11-01T10:38:10.854Z,12.50
2017-11-01T10:40:38.376Z,12.50
2017-11-01T10:43:05.851Z,12.50
2017-11-01T10:45:33.374Z,12.50
2017-11-01T10:48:00.873Z,12.50
2017-11-01T10:50:28.392Z,12.50
2017-11-01T10:52:55.863Z,12.60
2017-11-01T10:55:23.572Z,12.70
2017-11-01T10:57:51.075Z,12.70
2017-11-01T11:00:18.657Z,12.50
2017-11-01T11:02:46.148Z,12.50
2017-11-01T11:05:13.618Z,12.50
2017-11-01T11:07:41.098Z,12.50
2017-11-01T11:10:09.373Z,12.30
2017-11-01T11:12:36.837Z,12.40
2017-11-01T11:15:04.694Z,12.50
2017-11-01T11:17:33.343Z,12.50
2017-11-01T11:20:01.167Z,12.50
2017-11-01T11:22:28.642Z,12.40
2017-11-01T11:24:56.108Z,12.40
2017-11-01T11:27:24.359Z,12.50
2017-11-01T11:29:51.854Z,12.40
2017-11-01T11:32:19.394Z,12.60
2017-11-01T11:34:46.957Z,12.60
2017-11-01T11:37:14.433Z,12.60
2017-11-01T11:39:41.902Z,12.60
2017-11-01T11:42:09.391Z,12.60
2017-11-01T11:44:36.901Z,12.60
2017-11-01T11:47:04.466Z,12.60
2017-11-01T11:49:31.937Z,12.60
2017-11-01T11:52:00.172Z,12.60
2017-11-01T11:54:27.895Z,12.60
2017-11-01T11:56:55.441Z,12.70
2017-11-01T11:59:22.923Z,12.70
2017-11-01T12:01:50.481Z,12.70
2017-11-01T12:04:18.824Z,12.90
2017-11-01T12:06:46.343Z,12.90
2017-11-01T12:09:13.801Z,12.80
2017-11-01T12:11:41.345Z,12.90
2017-11-01T12:14:09.602Z,12.90
2017-11-01T12:16:37.088Z,12.80
2017-11-01T12:19:04.686Z,12.80
2017-11-01T12:21:32.179Z,12.70
2017-11-01T12:23:59.657Z,12.70
2017-11-01T12:26:27.231Z,12.70
2017-11-01T12:28:54.708Z,12.60
2017-11-01T12:31:22.344Z,12.60
2017-11-01T12:33:49.886Z,12.70
2017-11-01T12:36:17.431Z,12.70
2017-11-01T12:38:45.669Z,12.70
2017-11-01T12:41:13.243Z,12.70
2017-11-01T12:43:40.825Z,12.70
2017-11-01T12:46:08.328Z,12.60
2017-11-01T12:48:35.947Z,12.60
2017-11-01T12:51:03.436Z,12.50
2017-11-01T12:53:30.919Z,12.60
2017-11-01T12:55:58.493Z,12.70
2017-11-01T12:58:25.975Z,12.70
2017-11-01T13:00:53.443Z,12.70
2017-11-01T13:03:20.958Z,12.70
2017-11-01T13:05:48.466Z,12.70
2017-11-01T13:08:16.067Z,12.70
2017-11-01T13:10:44.301Z,12.70
2017-11-01T13:13:11.783Z,12.70
2017-11-01T13:15:40.256Z,12.70
2017-11-01T13:18:08.736Z,12.80
2017-11-01T13:20:36.204Z,12.80
2017-11-01T13:23:03.838Z,12.80
2017-11-01T13:25:31.391Z,12.90
2017-11-01T13:27:58.946Z,12.80
2017-11-01T13:30:26.518Z,12.80
2017-11-01T13:32:54.055Z,12.80
2017-11-01T13:35:22.354Z,12.90
2017-11-01T13:37:49.927Z,12.80
2017-11-01T13:40:17.411Z,12.80
2017-11-01T13:42:44.895Z,12.90
2017-11-01T13:45:12.420Z,12.90
2017-11-01T13:47:40.835Z,12.90
2017-11-01T13:50:08.731Z,12.90
2017-11-01T13:52:36.337Z,12.90
2017-11-01T13:55:03.922Z,12.80
2017-11-01T13:57:31.490Z,12.80
2017-11-01T13:59:58.983Z,12.80
2017-11-01T14:02:26.536Z,12.70
2017-11-01T14:04:54.125Z,12.70
2017-11-01T14:07:21.610Z,12.60
2017-11-01T14:09:49.178Z,12.80
2017-11-01T14:12:16.687Z,12.90
2017-11-01T14:14:44.205Z,12.80
2017-11-01T14:17:12.197Z,12.70
2017-11-01T14:19:40.110Z,12.80
2017-11-01T14:22:07.588Z,12.80
2017-11-01T14:24:35.136Z,12.80
2017-11-01T14:27:03.046Z,12.80
2017-11-01T14:29:30.522Z,12.80
2017-11-01T14:31:58.763Z,12.80
2017-11-01T14:34:26.372Z,12.70
2017-11-01T14:36:53.875Z,12.80
2017-11-01T14:39:21.450Z,12.70
2017-11-01T14:41:49.218Z,12.80
2017-11-01T14:44:17.536Z,12.80
2017-11-01T14:46:45.031Z,12.80
2017-11-01T14:49:12.578Z,12.80
2017-11-01T14:51:40.822Z,12.90
2017-11-01T14:54:08.293Z,12.90
2017-11-01T14:56:35.866Z,12.90
2017-11-01T14:59:04.092Z,12.70
2017-11-01T15:01:31.574Z,12.70
2017-11-01T15:03:59.060Z,12.70
2017-11-01T15:06:26.528Z,12.70
2017-11-01T15:08:54.208Z,12.70
2017-11-01T15:11:21.700Z,12.60
2017-11-01T15:13:49.274Z,12.70
2017-11-01T15:16:16.745Z,12.60
2017-11-01T15:18:45.005Z,12.50
2017-11-01T15:21:12.553Z,12.50
2017-11-01T15:23:40.074Z,12.50
2017-11-01T15:26:07.545Z,12.40
2017-11-01T15:28:36.227Z,12.30
2017-11-01T15:31:03.711Z,12.30
2017-11-01T15:33:31.215Z,12.30
2017-11-01T15:35:58.810Z,12.30
2017-11-01T15:38:26.319Z,12.30
2017-11-01T15:40:53.852Z,12.20
2017-11-01T15:43:22.215Z,12.20
2017-11-01T15:45:49.846Z,12.20
2017-11-01T15:48:17.439Z,12.30
2017-11-01T15:50:45.098Z,12.30
2017-11-01T15:53:12.609Z,12.30
2017-11-01T15:55:40.132Z,12.20
2017-11-01T15:58:07.684Z,12.20
2017-11-01T16:00:35.213Z,12.20
2017-11-01T16:03:02.705Z,12.20
2017-11-01T16:05:30.402Z,11.90
2017-11-01T16:07:58.680Z,12.00
2017-11-01T16:10:26.261Z,12.10
2017-11-01T16:12:53.860Z,12.00
2017-11-01T16:15:21.348Z,11.80
2017-11-01T16:17:48.888Z,11.80
2017-11-01T16:20:17.271Z,11.60
2017-11-01T16:22:45.546Z,11.60
2017-11-01T16:25:13.070Z,11.60
2017-11-01T16:27:40.818Z,11.50
2017-11-01T16:30:08.433Z,11.40
2017-11-01T16:32:35.897Z,11.30
2017-11-01T16:35:04.207Z,11.30
2017-11-01T16:37:32.441Z,11.30
2017-11-01T16:39:59.997Z,11.30
2017-11-01T16:42:27.644Z,11.30
2017-11-01T16:44:55.231Z,11.20
2017-11-01T16:47:22.720Z,11.10
2017-11-01T16:49:50.219Z,11.00
2017-11-01T16:52:17.765Z,11.00
2017-11-01T16:54:45.286Z,11.00
2017-11-01T16:57:12.847Z,11.00
2017-11-01T16:59:41.106Z,10.90
2017-11-01T17:02:08.563Z,10.90
2017-11-01T17:04:37.028Z,10.80
2017-11-01T17:07:04.516Z,10.80
2017-11-01T17:09:32.138Z,10.90
2017-11-01T17:11:59.990Z,10.90
2017-11-01T17:14:28.329Z,10.90
2017-11-01T17:16:55.845Z,10.90
2017-11-01T17:19:23.475Z,10.80
2017-11-01T17:21:50.964Z,10.70
2017-11-01T17:24:18.465Z,10.70
2017-11-01T17:26:46.045Z,10.70
2017-11-01T17:29:13.526Z,10.60
2017-11-01T17:31:41.051Z,10.60
2017-11-01T17:34:08.568Z,10.60
2017-11-01T17:36:36.079Z,10.60
2017-11-01T17:39:03.748Z,10.50
2017-11-01T17:41:32.099Z,10.60
2017-11-01T17:43:59.578Z,10.60
2017-11-01T17:46:27.060Z,10.70
2017-11-01T17:48:54.702Z,10.50
2017-11-01T17:51:22.180Z,10.50
2017-11-01T17:53:49.670Z,10.50
2017-11-01T17:56:17.321Z,10.50
2017-11-01T17:58:45.640Z,10.50
2017-11-01T18:01:13.130Z,10.40
2017-11-01T18:03:40.702Z,10.50
2017-11-01T18:06:08.199Z,10.40
2017-11-01T18:08:35.817Z,10.30
2017-11-01T18:11:03.430Z,10.30
2017-11-01T18:13:31.037Z,10.30
2017-11-01T18:15:58.524Z,10.20
2017-11-01T18:18:26.072Z,10.20
2017-11-01T18:20:53.662Z,10.20
2017-11-01T18:23:21.230Z,10.20
2017-11-01T18:25:49.557Z,10.20
2017-11-01T18:28:17.122Z,10.10
2017-11-01T18:30:45.118Z,10.10
2017-11-01T18:33:12.629Z,10.20
2017-11-01T18:35:40.194Z,10.10
2017-11-01T18:38:08.851Z,9.80
2017-11-01T18:40:36.773Z,10.10
2017-11-01T18:43:04.274Z,10.00
2017-11-01T18:45:32.637Z,10.00
2017-11-01T18:48:00.148Z,10.00
2017-11-01T18:50:27.875Z,9.90
2017-11-01T18:52:55.526Z,9.80
2017-11-01T18:55:23.882Z,9.80
2017-11-01T18:57:51.400Z,9.80
2017-11-01T19:00:19.023Z,9.80
2017-11-01T19:02:47.340Z,9.70
2017-11-01T19:05:15.595Z,9.70
2017-11-01T19:07:43.108Z,9.70
2017-11-01T19:10:12.044Z,9.80
2017-11-01T19:12:39.547Z,9.80
2017-11-01T19:15:07.220Z,9.80
2017-11-01T19:17:36.118Z,9.70
2017-11-01T19:20:04.373Z,9.80
2017-11-01T19:22:32.622Z,9.80
2017-11-01T19:25:00.360Z,9.80
2017-11-01T19:27:28.684Z,9.70
2017-11-01T19:29:56.252Z,9.70
2017-11-01T19:32:24.743Z,9.70
2017-11-01T19:34:53.127Z,9.60
2017-11-01T19:37:20.598Z,9.70
2017-11-01T19:39:49.071Z,9.70
2017-11-01T19:42:16.595Z,9.70
2017-11-01T19:44:44.096Z,9.60
2017-11-01T19:47:12.096Z,9.70
2017-11-01T19:49:39.580Z,9.70
2017-11-01T19:52:07.083Z,9.70
2017-11-01T19:54:35.438Z,9.70
2017-11-01T19:57:02.978Z,9.60
2017-11-01T19:59:30.449Z,9.60
2017-11-01T20:01:58.519Z,9.50
2017-11-01T20:04:26.006Z,9.50
2017-11-01T20:06:53.560Z,9.50
2017-11-01T20:09:21.499Z,9.40
2017-11-01T20:11:49.759Z,9.40
2017-11-01T20:14:17.477Z,9.40
2017-11-01T20:16:46.133Z,9.40
2017-11-01T20:19:14.486Z,9.30
2017-11-01T20:21:42.158Z,9.30
2017-11-01T20:24:10.735Z,9.20
2017-11-01T20:26:38.270Z,9.20
2017-11-01T20:29:06.547Z,9.20
2017-11-01T20:31:34.414Z,9.20
2017-11-01T20:34:01.914Z,9.20
2017-11-01T20:36:29.405Z,9.00
2017-11-01T20:38:57.532Z,9.00
2017-11-01T20:41:25.094Z,9.00
2017-11-01T20:43:52.593Z,9.10
2017-11-01T20:46:20.285Z,9.10
2017-11-01T20:48:48.526Z,8.80
2017-11-01T20:51:15.990Z,8.80
2017-11-01T20:53:44.843Z,8.70
2017-11-01T20:56:14.218Z,8.50
2017-11-01T20:58:41.843Z,8.50
2017-11-01T21:01:10.641Z,8.50
2017-11-01T21:03:38.974Z,8.50
2017-11-01T21:06:06.542Z,8.50
2017-11-01T21:08:34.195Z,8.50
2017-11-01T21:11:02.753Z,8.50
2017-11-01T21:13:30.281Z,8.50
2017-11-01T21:19:06.793Z,8.50
2017-11-01T21:21:34.445Z,8.60
2017-11-01T21:24:02.568Z,8.50
2017-11-01T21:26:30.331Z,8.50
2017-11-01T21:28:57.904Z,8.60
2017-11-01T21:31:25.563Z,8.60
2017-11-01T21:36:58.108Z,8.50
2017-11-01T21:39:25.745Z,8.50
2017-11-01T21:41:53.998Z,8.60
2017-11-01T21:44:21.712Z,8.50
2017-11-01T21:46:50.074Z,8.50
2017-11-01T21:49:18.371Z,8.50
2017-11-01T21:51:46.331Z,8.50
2017-11-01T21:54:13.946Z,8.50
2017-11-01T21:56:41.461Z,8.40
2017-11-01T21:59:09.832Z,8.40
2017-11-01T22:01:37.414Z,8.40
2017-11-01T22:04:05.161Z,8.40
2017-11-01T22:06:32.698Z,8.40
2017-11-01T22:09:02.275Z,8.30
2017-11-01T22:11:29.979Z,8.30
2017-11-01T22:13:58.478Z,8.40
2017-11-01T22:16:27.372Z,8.40
2017-11-01T22:18:54.854Z,8.30
2017-11-01T22:21:23.114Z,8.30
2017-11-01T22:23:50.676Z,8.30
2017-11-01T22:26:18.194Z,8.30
2017-11-01T22:28:45.789Z,8.30
2017-11-01T22:31:13.540Z,8.30
2017-11-01T22:33:41.021Z,8.30
2017-11-01T22:36:09.463Z,8.30
2017-11-01T22:38:37.318Z,8.30
2017-11-01T22:41:04.940Z,8.30
2017-11-01T22:43:32.429Z,8.20
2017-11-01T22:46:00.050Z,8.20
2017-11-01T22:48:27.542Z,8.20
2017-11-01T22:50:55.027Z,8.20
2017-11-01T22:53:23.015Z,8.30
2017-11-01T22:55:50.496Z,8.30
2017-11-01T22:58:20.042Z,8.30
2017-11-01T23:00:48.784Z,8.30
2017-11-01T23:03:16.289Z,8.30
2017-11-01T23:05:44.651Z,8.40
2017-11-01T23:08:12.139Z,8.10
2017-11-01T23:10:40.418Z,8.30
2017-11-01T23:13:07.941Z,8.30
2017-11-01T23:15:35.432Z,8.30
2017-11-01T23:18:02.970Z,8.30
2017-11-01T23:20:30.443Z,8.30
2017-11-01T23:22:57.939Z,8.20
2017-11-01T23:25:25.574Z,8.20
2017-11-01T23:27:53.076Z,8.20
2017-11-01T23:30:20.596Z,8.10
2017-11-01T23:32:48.113Z,7.90
2017-11-01T23:35:15.643Z,7.90
2017-11-01T23:37:43.123Z,7.80
2017-11-01T23:40:10.601Z,7.80
2017-11-01T23:42:38.114Z,7.80
2017-11-01T23:45:06.347Z,7.80
2017-11-01T23:47:33.854Z,7.70
2017-11-01T23:50:02.099Z,7.80
2017-11-01T23:52:29.705Z,7.80
2017-11-01T23:54:57.243Z,7.80
2017-11-01T23:57:24.779Z,7.80
2017-11-01T23:59:52.295Z,7.80
